Time;durP1;ratioP1;P1;durP2;ratioP2;P2;SDS_P1;SDS_P2;PMS_P1;PMS_P2;Temp;Humidity;BMP_temperature;BMP_pressure;BME280_temperature;BME280_humidity;BME280_pressure;Samples;Min_cycle;Max_cycle;Signal;HPM_P1;HPM_P2
2021/01/06 00:02:06;;;;;;;13.48;8.07;;;3.60;99.90;;;;;;5067060;28;20505;-47
2021/01/06 00:04:32;;;;;;;12.38;7.85;;;3.60;99.90;;;;;;5048375;28;20025;-47
2021/01/06 00:06:58;;;;;;;18.80;8.93;;;3.60;99.90;;;;;;5064094;28;20033;-46
2021/01/06 00:09:24;;;;;;;17.38;8.90;;;3.60;99.90;;;;;;5059461;28;20055;-47
2021/01/06 00:11:49;;;;;;;14.32;8.68;;;3.60;99.90;;;;;;5048845;28;20032;-46
2021/01/06 00:14:16;;;;;;;14.23;8.75;;;3.60;99.90;;;;;;5048029;28;20037;-46
2021/01/06 00:16:42;;;;;;;12.13;7.22;;;3.60;99.90;;;;;;5046674;28;20025;-48
2021/01/06 00:19:09;;;;;;;13.45;7.60;;;3.60;99.90;;;;;;5047588;28;20021;-47
2021/01/06 00:21:38;;;;;;;14.35;8.15;;;3.60;99.90;;;;;;5055035;28;20028;-47
2021/01/06 00:24:04;;;;;;;13.88;7.00;;;3.60;99.90;;;;;;5057368;28;20110;-46
2021/01/06 00:26:36;;;;;;;12.93;7.53;;;3.60;99.90;;;;;;5052069;28;20428;-48
2021/01/06 00:29:06;;;;;;;13.55;7.35;;;3.60;99.90;;;;;;5052008;28;20275;-46
2021/01/06 00:31:36;;;;;;;15.27;8.10;;;3.60;99.90;;;;;;5056695;28;20122;-46
2021/01/06 00:34:02;;;;;;;12.70;7.28;;;3.60;99.90;;;;;;5051968;28;20013;-47
2021/01/06 00:36:27;;;;;;;10.98;6.53;;;3.60;99.90;;;;;;5061032;28;20021;-46
2021/01/06 00:38:53;;;;;;;10.30;6.65;;;3.60;99.90;;;;;;5078467;28;20032;-45
2021/01/06 00:41:32;;;;;;;12.15;6.15;;;3.60;99.90;;;;;;5064511;28;20070;-46
2021/01/06 00:43:59;;;;;;;10.70;5.57;;;3.60;99.90;;;;;;5067007;28;20093;-46
2021/01/06 00:46:30;;;;;;;10.50;6.05;;;3.60;99.90;;;;;;5063392;28;20493;-47
2021/01/06 00:48:56;;;;;;;12.50;6.22;;;3.60;99.90;;;;;;5063892;28;20067;-48
2021/01/06 00:51:22;;;;;;;9.82;5.55;;;3.50;99.90;;;;;;5064152;28;20133;-46
2021/01/06 00:53:47;;;;;;;10.00;5.78;;;3.60;99.90;;;;;;5057766;28;20481;-46
2021/01/06 00:56:13;;;;;;;13.57;5.95;;;3.50;99.90;;;;;;5048183;28;20032;-46
2021/01/06 00:58:38;;;;;;;8.88;5.70;;;3.50;99.90;;;;;;5047416;28;20016;-48
2021/01/06 01:01:03;;;;;;;8.60;5.53;;;3.50;99.90;;;;;;5048011;28;20021;-47
2021/01/06 01:03:29;;;;;;;12.95;6.13;;;3.50;99.90;;;;;;5047914;28;20434;-50
2021/01/06 01:05:55;;;;;;;9.20;5.82;;;3.50;99.90;;;;;;5037485;28;20025;-49
2021/01/06 01:08:20;;;;;;;10.13;5.78;;;3.50;99.90;;;;;;5046651;28;20029;-49
2021/01/06 01:10:48;;;;;;;13.05;5.88;;;3.50;99.90;;;;;;5047457;28;20029;-48
2021/01/06 01:13:22;;;;;;;10.45;5.50;;;3.50;99.90;;;;;;5046112;28;20021;-46
2021/01/06 01:15:54;;;;;;;10.18;5.50;;;3.50;99.90;;;;;;5045920;28;20033;-47
2021/01/06 01:18:23;;;;;;;9.73;5.50;;;3.50;99.90;;;;;;5047776;28;20048;-46
2021/01/06 01:20:51;;;;;;;10.32;5.72;;;3.50;99.90;;;;;;5048747;28;20248;-47
2021/01/06 01:23:19;;;;;;;12.43;5.38;;;3.50;99.90;;;;;;5047812;28;20768;-47
2021/01/06 01:25:45;;;;;;;9.30;5.50;;;3.50;99.90;;;;;;5046575;28;20481;-46
2021/01/06 01:28:12;;;;;;;12.07;6.50;;;3.50;99.90;;;;;;5048506;28;20040;-47
2021/01/06 01:30:37;;;;;;;10.07;6.15;;;3.50;99.90;;;;;;5045112;28;20067;-50
2021/01/06 01:33:03;;;;;;;9.68;5.65;;;3.50;99.90;;;;;;5044364;28;20025;-47
2021/01/06 01:35:30;;;;;;;13.68;6.05;;;3.40;99.90;;;;;;5047346;28;20112;-50
2021/01/06 01:37:57;;;;;;;11.90;5.75;;;3.40;99.90;;;;;;5047143;28;20474;-47
2021/01/06 01:40:25;;;;;;;15.30;7.00;;;3.50;99.90;;;;;;5046978;28;20074;-47
2021/01/06 01:43:04;;;;;;;10.23;6.15;;;3.40;99.90;;;;;;5046037;28;20033;-48
2021/01/06 01:45:45;;;;;;;9.38;5.93;;;3.50;99.90;;;;;;5040522;28;20033;-48
2021/01/06 01:48:22;;;;;;;11.07;5.82;;;3.50;99.90;;;;;;5046660;28;20083;-47
2021/01/06 01:50:48;;;;;;;11.23;5.75;;;3.40;99.90;;;;;;5048012;28;20539;-47
2021/01/06 01:53:19;;;;;;;8.10;5.40;;;3.40;99.90;;;;;;5045536;28;20041;-48
2021/01/06 01:55:46;;;;;;;8.20;5.25;;;3.40;99.90;;;;;;5062324;28;20029;-48
2021/01/06 01:58:21;;;;;;;7.82;4.90;;;3.40;99.90;;;;;;5047671;28;20036;-48
2021/01/06 02:00:48;;;;;;;11.43;5.30;;;3.50;99.90;;;;;;5047996;28;20020;-51
2021/01/06 02:03:34;;;;;;;8.25;4.43;;;3.40;99.90;;;;;;5042728;28;20033;-48
2021/01/06 02:06:09;;;;;;;6.80;4.63;;;3.50;99.90;;;;;;5032023;28;20041;-48
2021/01/06 02:08:41;;;;;;;7.15;4.75;;;3.50;99.90;;;;;;5027457;28;20084;-50
2021/01/06 02:11:08;;;;;;;9.07;4.72;;;3.50;99.90;;;;;;5043812;28;20056;-47
2021/01/06 02:13:40;;;;;;;8.02;5.38;;;3.50;99.90;;;;;;5050797;28;20095;-47
2021/01/06 02:16:42;;;;;;;8.20;4.93;;;3.50;99.90;;;;;;5050805;28;20421;-50
2021/01/06 02:19:11;;;;;;;9.35;5.03;;;3.50;99.90;;;;;;5050530;28;20021;-47
2021/01/06 02:21:36;;;;;;;7.10;5.00;;;3.40;99.90;;;;;;5051779;28;20018;-50
2021/01/06 02:24:02;;;;;;;9.52;5.75;;;3.40;99.90;;;;;;5045930;28;20035;-47
2021/01/06 02:26:29;;;;;;;7.30;4.97;;;3.40;99.90;;;;;;5051013;28;20033;-49
2021/01/06 02:28:55;;;;;;;8.25;4.70;;;3.40;99.90;;;;;;5049412;28;20039;-46
2021/01/06 02:31:21;;;;;;;9.73;5.40;;;3.40;99.90;;;;;;5043198;28;20040;-46
2021/01/06 02:33:49;;;;;;;7.95;5.15;;;3.40;99.90;;;;;;5051038;28;20428;-47
2021/01/06 02:36:15;;;;;;;9.50;4.95;;;3.40;99.90;;;;;;5047575;28;20486;-47
2021/01/06 02:38:42;;;;;;;8.25;5.45;;;3.40;99.90;;;;;;5050835;28;20531;-46
2021/01/06 02:41:09;;;;;;;7.43;5.03;;;3.40;99.90;;;;;;5048708;28;20029;-46
2021/01/06 02:43:35;;;;;;;10.35;5.88;;;3.40;99.90;;;;;;5049515;28;20036;-46
2021/01/06 02:46:00;;;;;;;9.75;6.22;;;3.40;99.90;;;;;;5050676;28;20035;-47
2021/01/06 02:48:27;;;;;;;9.55;4.97;;;3.40;99.90;;;;;;5050926;28;20528;-46
2021/01/06 02:51:00;;;;;;;8.65;6.15;;;3.40;99.90;;;;;;5051249;28;20039;-46
2021/01/06 02:53:42;;;;;;;11.13;6.63;;;3.40;99.90;;;;;;5049257;28;20413;-47
2021/01/06 02:56:08;;;;;;;10.90;6.40;;;3.40;99.90;;;;;;5050225;28;20028;-47
2021/01/06 02:58:35;;;;;;;11.23;6.47;;;3.40;99.90;;;;;;5050420;28;20237;-46
2021/01/06 03:01:01;;;;;;;8.82;6.13;;;3.40;99.90;;;;;;5050515;28;20021;-46
2021/01/06 03:03:32;;;;;;;9.85;6.47;;;3.40;99.90;;;;;;5049218;28;20029;-47
2021/01/06 03:06:10;;;;;;;9.73;6.55;;;3.40;99.90;;;;;;5049103;28;20040;-46
2021/01/06 03:08:37;;;;;;;10.93;6.90;;;3.40;99.90;;;;;;5048672;28;20041;-47
2021/01/06 03:11:03;;;;;;;13.07;6.90;;;3.40;99.90;;;;;;5050789;28;20116;-46
2021/01/06 03:13:30;;;;;;;12.77;6.35;;;3.40;99.90;;;;;;5048808;28;20033;-46
2021/01/06 03:15:56;;;;;;;15.30;7.53;;;3.40;99.90;;;;;;5050286;28;20025;-46
2021/01/06 03:18:21;;;;;;;15.02;7.43;;;3.40;99.90;;;;;;5048602;28;20108;-48
2021/01/06 03:20:50;;;;;;;15.13;8.70;;;3.40;99.90;;;;;;5050379;28;20102;-46
2021/01/06 03:23:50;;;;;;;13.68;8.10;;;3.40;99.90;;;;;;5050049;28;20025;-48
2021/01/06 03:26:21;;;;;;;10.90;7.53;;;3.30;99.90;;;;;;5048784;28;20144;-47
2021/01/06 03:28:48;;;;;;;;;;;3.30;99.90;;;;;;5048998;28;20085;-46
2021/01/06 03:31:23;;;;;;;14.55;8.30;;;3.30;99.90;;;;;;5043540;28;19958;-46
2021/01/06 03:34:02;;;;;;;14.85;7.65;;;3.30;99.90;;;;;;5042353;28;20423;-48
2021/01/06 03:36:35;;;;;;;17.90;8.40;;;3.30;99.90;;;;;;5041455;28;20025;-47
2021/01/06 03:39:07;;;;;;;19.90;9.50;;;3.30;99.90;;;;;;5048053;28;20176;-49
2021/01/06 03:41:34;;;;;;;17.60;8.73;;;3.30;99.90;;;;;;5048059;28;20029;-46
2021/01/06 03:44:06;;;;;;;14.35;8.75;;;3.40;99.90;;;;;;5065394;28;20036;-46
2021/01/06 03:46:43;;;;;;;19.98;9.63;;;3.30;99.90;;;;;;5049729;28;20029;-47
2021/01/06 03:49:34;;;;;;;15.02;8.77;;;3.40;99.90;;;;;;5048967;28;20398;-47
2021/01/06 03:52:16;;;;;;;20.27;9.60;;;3.40;99.90;;;;;;5049359;28;20029;-47
2021/01/06 03:55:02;;;;;;;17.85;8.80;;;3.30;99.90;;;;;;5048849;28;20129;-49
2021/01/06 03:57:29;;;;;;;15.25;8.75;;;3.30;99.90;;;;;;5048929;28;20116;-46
2021/01/06 03:59:56;;;;;;;14.80;8.70;;;3.40;99.90;;;;;;5048730;28;20087;-46
2021/01/06 04:02:30;;;;;;;15.80;8.00;;;3.30;99.90;;;;;;5048913;28;20025;-47
2021/01/06 04:05:06;;;;;;;15.88;8.38;;;3.30;99.90;;;;;;5049184;28;20033;-49
2021/01/06 04:07:39;;;;;;;19.35;8.60;;;3.40;99.90;;;;;;5045784;28;20033;-47
2021/01/06 04:10:09;;;;;;;12.32;7.68;;;3.40;99.90;;;;;;5039889;28;20116;-47
2021/01/06 04:12:34;;;;;;;13.68;8.20;;;3.40;99.90;;;;;;5043443;28;20528;-46
2021/01/06 04:15:00;;;;;;;12.02;7.15;;;3.30;99.90;;;;;;5049087;28;20124;-47
2021/01/06 04:17:35;;;;;;;13.40;7.15;;;3.40;99.90;;;;;;5049548;28;20462;-48
2021/01/06 04:20:19;;;;;;;10.95;6.70;;;3.40;99.90;;;;;;5043304;28;20113;-47
2021/01/06 04:22:47;;;;;;;11.45;6.93;;;3.30;99.90;;;;;;5031232;28;20037;-49
2021/01/06 04:25:44;;;;;;;15.75;7.00;;;3.30;99.90;;;;;;5047363;28;20078;-46
2021/01/06 04:28:20;;;;;;;10.40;5.80;;;3.30;99.90;;;;;;5049066;28;20041;-46
2021/01/06 04:30:50;;;;;;;12.57;6.50;;;3.30;99.90;;;;;;5048133;28;20125;-47
2021/01/06 04:33:18;;;;;;;16.75;7.32;;;3.30;99.90;;;;;;5045018;28;20068;-47
2021/01/06 04:35:45;;;;;;;11.27;6.88;;;3.30;99.90;;;;;;5048172;28;20017;-47
2021/01/06 04:38:19;;;;;;;11.70;6.47;;;3.30;99.90;;;;;;5048681;28;20035;-50
2021/01/06 04:40:47;;;;;;;14.23;6.72;;;3.30;99.90;;;;;;5047784;28;20075;-47
2021/01/06 04:43:38;;;;;;;13.52;7.80;;;3.30;99.90;;;;;;5048374;28;20482;-48
2021/01/06 04:46:52;;;;;;;10.80;6.07;;;3.30;99.90;;;;;;5045779;28;20040;-47
2021/01/06 04:49:47;;;;;;;13.05;7.32;;;3.30;99.90;;;;;;5044635;28;20250;-47
2021/01/06 04:52:49;;;;;;;14.77;6.90;;;3.20;99.90;;;;;;5041234;28;20500;-48
2021/01/06 04:55:26;;;;;;;13.68;7.07;;;3.20;99.90;;;;;;5027165;28;20721;-47
2021/01/06 04:58:14;;;;;;;9.80;6.53;;;3.20;99.90;;;;;;5041130;28;20033;-47
2021/01/06 05:01:30;;;;;;;12.57;6.18;;;3.20;99.90;;;;;;5048903;28;20283;-50
2021/01/06 05:04:36;;;;;;;10.02;6.45;;;3.30;99.90;;;;;;5047469;28;20037;-47
2021/01/06 05:07:19;;;;;;;12.20;6.90;;;3.20;99.90;;;;;;5048302;28;20287;-46
2021/01/06 05:09:52;;;;;;;11.55;6.78;;;3.20;99.90;;;;;;5044518;28;20551;-47
2021/01/06 05:12:29;;;;;;;11.45;6.18;;;3.20;99.90;;;;;;5044493;28;20075;-46
2021/01/06 05:15:08;;;;;;;14.00;7.25;;;3.20;99.90;;;;;;5062608;28;20123;-49
2021/01/06 05:17:35;;;;;;;10.43;5.93;;;3.20;99.90;;;;;;5048304;28;20120;-49
2021/01/06 05:20:02;;;;;;;13.27;7.13;;;3.20;99.90;;;;;;5046574;28;20040;-49
2021/01/06 05:22:28;;;;;;;13.00;7.50;;;3.20;99.90;;;;;;5047679;28;20493;-46
2021/01/06 05:24:53;;;;;;;10.60;6.05;;;3.20;99.90;;;;;;5046679;28;20110;-46
2021/01/06 05:27:23;;;;;;;12.25;6.70;;;3.20;99.90;;;;;;5042517;28;20037;-48
2021/01/06 05:29:53;;;;;;;11.85;6.88;;;3.20;99.90;;;;;;5048080;28;20020;-47
2021/01/06 05:32:30;;;;;;;13.18;6.40;;;3.20;99.90;;;;;;5057056;28;20021;-47
2021/01/06 05:35:06;;;;;;;11.02;6.30;;;3.20;99.90;;;;;;5065498;28;20456;-47
2021/01/06 05:37:32;;;;;;;13.65;6.63;;;3.20;99.90;;;;;;5054637;28;20432;-48
2021/01/06 05:40:04;;;;;;;9.38;6.35;;;3.10;99.90;;;;;;5061719;28;20017;-47
2021/01/06 05:42:35;;;;;;;8.95;5.68;;;3.10;99.90;;;;;;5066271;28;20027;-47
2021/01/06 05:45:04;;;;;;;14.45;6.25;;;3.10;99.90;;;;;;5061167;28;20075;-47
2021/01/06 05:47:39;;;;;;;8.93;5.75;;;3.10;99.90;;;;;;5057947;28;20028;-49
2021/01/06 05:50:21;;;;;;;9.68;5.57;;;3.10;99.90;;;;;;5059711;28;20277;-46
2021/01/06 05:52:55;;;;;;;10.98;7.07;;;3.10;99.90;;;;;;5064375;28;20032;-47
2021/01/06 05:55:21;;;;;;;10.10;5.82;;;3.10;99.90;;;;;;5060545;28;20390;-47
2021/01/06 05:58:02;;;;;;;10.73;6.53;;;3.00;99.90;;;;;;5064455;28;20134;-47
2021/01/06 06:00:44;;;;;;;11.18;5.90;;;3.00;99.90;;;;;;5064165;28;20028;-47
2021/01/06 06:03:42;;;;;;;9.45;5.35;;;3.00;99.90;;;;;;5063641;28;20078;-46
2021/01/06 06:06:40;;;;;;;8.35;4.70;;;3.00;99.90;;;;;;5060002;28;20025;-47
2021/01/06 06:09:30;;;;;;;7.30;5.00;;;3.00;99.90;;;;;;5062581;28;20389;-47
2021/01/06 06:12:18;;;;;;;8.85;5.43;;;2.90;99.90;;;;;;5045264;28;20537;-47
2021/01/06 06:15:23;;;;;;;7.30;4.60;;;3.00;99.90;;;;;;5064267;28;20095;-47
2021/01/06 06:18:18;;;;;;;10.63;4.80;;;2.90;99.90;;;;;;5058392;28;20036;-47
2021/01/06 06:21:16;;;;;;;12.27;4.82;;;2.90;99.90;;;;;;5060274;28;20025;-47
2021/01/06 06:24:14;;;;;;;10.82;5.00;;;2.90;99.90;;;;;;5065721;28;20063;-47
2021/01/06 06:27:02;;;;;;;7.63;4.50;;;2.90;99.90;;;;;;5064858;28;20037;-47
2021/01/06 06:29:44;;;;;;;9.95;5.35;;;2.90;99.90;;;;;;5072952;28;20060;-46
2021/01/06 06:32:11;;;;;;;10.93;5.38;;;2.90;99.90;;;;;;5058753;28;20680;-46
2021/01/06 06:34:42;;;;;;;9.10;5.13;;;2.90;99.90;;;;;;5059780;28;20031;-46
2021/01/06 06:37:20;;;;;;;8.02;5.05;;;2.90;99.90;;;;;;5062065;28;20031;-46
2021/01/06 06:40:06;;;;;;;9.02;4.70;;;2.80;99.90;;;;;;5056006;28;20415;-46
2021/01/06 06:42:53;;;;;;;8.82;5.18;;;2.80;99.90;;;;;;5064545;28;20020;-46
2021/01/06 06:45:39;;;;;;;8.93;4.95;;;2.80;99.90;;;;;;5038967;28;20097;-47
2021/01/06 06:48:35;;;;;;;7.10;4.97;;;2.80;99.90;;;;;;5027163;28;20037;-47
2021/01/06 06:51:19;;;;;;;9.80;5.40;;;2.70;99.90;;;;;;5037880;28;20086;-47
2021/01/06 06:53:48;;;;;;;9.10;5.03;;;2.80;99.90;;;;;;5046928;28;20071;-47
2021/01/06 06:56:41;;;;;;;7.65;4.53;;;2.70;99.90;;;;;;5051188;28;20025;-47
2021/01/06 06:59:15;;;;;;;8.02;5.18;;;2.70;99.90;;;;;;5071047;28;20047;-46
2021/01/06 07:01:45;;;;;;;9.05;5.00;;;2.70;99.90;;;;;;5071099;28;20041;-49
2021/01/06 07:04:19;;;;;;;8.73;5.25;;;2.70;99.90;;;;;;5029671;28;20064;-46
2021/01/06 07:06:54;;;;;;;7.18;5.10;;;2.70;99.90;;;;;;5030618;28;20030;-49
2021/01/06 07:09:41;;;;;;;7.85;5.20;;;2.70;99.90;;;;;;5030337;28;20418;-46
2021/01/06 07:12:10;;;;;;;7.72;4.97;;;2.60;99.90;;;;;;5037386;28;20405;-46
2021/01/06 07:14:39;;;;;;;7.43;4.63;;;2.60;99.90;;;;;;5046196;28;20048;-47
2021/01/06 07:17:12;;;;;;;7.20;5.00;;;2.60;99.90;;;;;;5049630;28;20029;-47
2021/01/06 07:19:50;;;;;;;8.43;5.05;;;2.60;99.90;;;;;;5050717;28;20075;-47
2021/01/06 07:22:18;;;;;;;7.35;4.82;;;2.60;99.90;;;;;;5050510;28;20029;-47
2021/01/06 07:25:16;;;;;;;8.52;4.88;;;2.60;99.90;;;;;;5047981;28;20203;-49
2021/01/06 07:27:42;;;;;;;7.75;4.80;;;2.50;99.90;;;;;;5063508;28;20044;-47
2021/01/06 07:30:09;;;;;;;9.25;5.35;;;2.50;99.90;;;;;;5047820;28;20044;-50
2021/01/06 07:32:43;;;;;;;10.13;5.90;;;2.50;99.90;;;;;;5048951;28;20025;-48
2021/01/06 07:35:21;;;;;;;8.20;5.38;;;2.60;99.90;;;;;;5046004;28;20028;-46
2021/01/06 07:38:02;;;;;;;8.57;5.15;;;2.60;99.90;;;;;;5044670;28;20034;-48
2021/01/06 07:40:34;;;;;;;8.30;5.32;;;2.60;99.90;;;;;;5043020;28;20051;-48
2021/01/06 07:43:06;;;;;;;8.98;5.45;;;2.60;99.90;;;;;;5046673;28;20051;-48
2021/01/06 07:45:37;;;;;;;8.70;5.45;;;2.60;99.90;;;;;;5048070;28;20048;-47
2021/01/06 07:48:16;;;;;;;10.23;6.00;;;2.60;99.90;;;;;;5049083;28;20035;-48
2021/01/06 07:50:58;;;;;;;7.95;5.20;;;2.60;99.90;;;;;;5048808;28;20024;-48
2021/01/06 07:53:26;;;;;;;8.57;6.15;;;2.60;99.90;;;;;;5048160;28;20033;-47
2021/01/06 07:56:00;;;;;;;8.63;5.40;;;2.60;99.90;;;;;;5048940;28;20100;-47
2021/01/06 07:58:34;;;;;;;9.13;5.47;;;2.60;99.90;;;;;;5048758;28;20405;-49
2021/01/06 08:01:05;;;;;;;8.32;5.88;;;2.60;99.90;;;;;;5049911;28;20488;-48
2021/01/06 08:03:51;;;;;;;10.20;5.82;;;2.60;99.90;;;;;;5047811;28;20025;-47
2021/01/06 08:06:20;;;;;;;8.23;5.63;;;2.60;99.90;;;;;;5048978;28;20029;-49
2021/01/06 08:08:51;;;;;;;9.05;6.03;;;2.60;99.90;;;;;;5048144;28;20021;-47
2021/01/06 08:11:19;;;;;;;10.35;5.93;;;2.60;99.90;;;;;;5048585;28;20266;-49
2021/01/06 08:13:48;;;;;;;9.02;5.82;;;2.60;99.90;;;;;;5043421;28;20029;-49
2021/01/06 08:16:28;;;;;;;11.85;7.47;;;2.60;99.90;;;;;;5047142;28;20029;-47
2021/01/06 08:18:54;;;;;;;8.88;5.50;;;2.60;99.90;;;;;;5055129;28;20068;-49
2021/01/06 08:21:29;;;;;;;7.90;5.20;;;2.60;99.90;;;;;;5048295;28;20116;-46
2021/01/06 08:24:12;;;;;;;10.85;6.50;;;2.60;99.90;;;;;;5044727;28;20352;-47
2021/01/06 08:26:56;;;;;;;9.70;5.72;;;2.60;99.90;;;;;;5044939;28;20555;-48
2021/01/06 08:29:31;;;;;;;8.63;5.43;;;2.60;99.90;;;;;;5043514;28;20454;-47
2021/01/06 08:32:22;;;;;;;8.40;5.07;;;2.60;99.90;;;;;;5046112;28;20276;-49
2021/01/06 08:35:04;;;;;;;7.07;4.85;;;2.60;99.90;;;;;;5046475;28;20032;-49
2021/01/06 08:37:33;;;;;;;8.23;4.55;;;2.60;99.90;;;;;;5046707;28;20389;-47
2021/01/06 08:40:00;;;;;;;7.05;5.03;;;2.60;99.90;;;;;;5047777;28;20029;-46
2021/01/06 08:42:46;;;;;;;8.02;4.63;;;2.60;99.90;;;;;;5047677;28;20040;-46
2021/01/06 08:45:25;;;;;;;10.38;4.93;;;2.60;99.90;;;;;;5046483;28;20298;-48
2021/01/06 08:47:51;;;;;;;7.57;4.90;;;2.60;99.90;;;;;;5044719;28;20497;-48
2021/01/06 08:50:16;;;;;;;6.38;4.53;;;2.70;99.90;;;;;;5048742;28;20120;-49
2021/01/06 08:52:53;;;;;;;8.10;4.97;;;2.60;99.90;;;;;;5044048;28;20029;-49
2021/01/06 08:55:34;;;;;;;6.93;4.88;;;2.60;99.90;;;;;;5045544;28;20028;-48
2021/01/06 08:58:01;;;;;;;6.95;4.38;;;2.60;99.90;;;;;;5047718;28;20025;-48
2021/01/06 09:00:38;;;;;;;7.82;4.28;;;2.60;99.90;;;;;;5047707;28;20048;-47
2021/01/06 09:03:07;;;;;;;6.38;4.15;;;2.60;99.90;;;;;;5042635;28;20033;-47
2021/01/06 09:05:54;;;;;;;6.13;4.30;;;2.60;99.90;;;;;;5046426;28;20498;-47
2021/01/06 09:08:42;;;;;;;6.63;4.22;;;2.60;99.90;;;;;;5038161;28;20451;-46
2021/01/06 09:11:34;;;;;;;6.15;4.32;;;2.70;99.90;;;;;;5047351;28;20025;-49
2021/01/06 09:14:25;;;;;;;9.15;5.82;;;2.70;99.90;;;;;;5033587;28;20453;-47
2021/01/06 09:17:11;;;;;;;7.10;3.58;;;2.70;99.90;;;;;;5043587;28;20044;-47
2021/01/06 09:19:48;;;;;;;6.45;3.97;;;2.70;99.90;;;;;;5048114;28;20044;-47
2021/01/06 09:22:16;;;;;;;5.95;3.72;;;2.70;99.90;;;;;;5047506;28;20421;-50
2021/01/06 09:24:43;;;;;;;6.75;4.70;;;2.70;99.90;;;;;;5046750;28;20102;-48
2021/01/06 09:27:41;;;;;;;6.10;4.40;;;2.70;99.90;;;;;;5047772;28;20036;-48
2021/01/06 09:30:23;;;;;;;6.55;4.68;;;2.70;99.90;;;;;;5042956;28;20029;-49
2021/01/06 09:32:51;;;;;;;7.55;4.45;;;2.70;99.90;;;;;;5045115;28;20096;-47
2021/01/06 09:35:21;;;;;;;7.43;4.13;;;2.80;99.90;;;;;;5044868;28;20033;-51
2021/01/06 09:38:14;;;;;;;6.43;4.57;;;2.70;99.90;;;;;;5044148;28;20017;-48
2021/01/06 09:40:41;;;;;;;7.57;4.32;;;2.70;99.90;;;;;;5044715;28;20028;-51
2021/01/06 09:43:20;;;;;;;6.15;4.20;;;2.70;99.90;;;;;;5045922;28;20147;-48
2021/01/06 09:45:46;;;;;;;5.80;4.55;;;2.80;99.90;;;;;;5045599;28;20059;-50
2021/01/06 09:51:51;;;;;;;7.70;4.32;;;2.90;99.90;;;;;;5058298;28;20035;-48
2021/01/06 09:54:17;;;;;;;5.35;3.97;;;2.90;99.90;;;;;;5062177;28;20045;-49
2021/01/06 10:00:39;;;;;;;7.15;4.28;;;2.90;99.90;;;;;;5046147;28;20036;-48
2021/01/06 10:03:06;;;;;;;8.67;5.50;;;2.90;99.90;;;;;;5047902;28;20029;-48
2021/01/06 10:05:47;;;;;;;8.18;5.47;;;2.90;99.90;;;;;;5047971;28;20306;-48
2021/01/06 10:08:18;;;;;;;8.35;4.55;;;2.90;99.90;;;;;;5032281;28;20034;-48
2021/01/06 10:10:47;;;;;;;9.70;5.57;;;2.90;99.90;;;;;;5028026;28;20033;-48
2021/01/06 10:13:41;;;;;;;7.00;4.63;;;2.90;99.90;;;;;;5042083;28;20360;-48
2021/01/06 10:16:13;;;;;;;9.10;5.40;;;2.90;99.90;;;;;;5047771;28;20024;-50
2021/01/06 10:19:06;;;;;;;8.27;5.22;;;2.90;99.90;;;;;;5046812;28;20029;-51
2021/01/06 10:21:54;;;;;;;7.55;5.25;;;2.80;99.90;;;;;;5048595;28;20021;-49
2021/01/06 10:24:52;;;;;;;8.85;5.70;;;2.90;99.90;;;;;;5047202;28;20033;-48
2021/01/06 10:27:33;;;;;;;10.05;5.90;;;2.90;99.90;;;;;;5047298;28;20033;-48
2021/01/06 10:30:11;;;;;;;10.77;6.38;;;2.90;99.90;;;;;;5042285;28;20032;-48
2021/01/06 10:33:03;;;;;;;11.70;7.10;;;2.90;99.90;;;;;;5045004;28;20094;-48
2021/01/06 10:35:37;;;;;;;11.48;7.28;;;2.80;99.90;;;;;;5049135;28;20382;-48
2021/01/06 10:38:22;;;;;;;10.50;6.80;;;2.90;99.90;;;;;;5049323;28;20021;-48
2021/01/06 10:40:50;;;;;;;12.48;7.05;;;2.90;99.90;;;;;;5031632;28;20140;-48
2021/01/06 10:43:37;;;;;;;9.95;5.93;;;2.90;99.90;;;;;;5035712;28;20564;-51
2021/01/06 10:46:55;;;;;;;11.73;5.97;;;2.90;99.90;;;;;;5051531;28;20031;-50
2021/01/06 10:49:21;;;;;;;13.45;6.35;;;2.90;99.90;;;;;;5039543;28;20452;-50
2021/01/06 10:51:58;;;;;;;8.43;5.80;;;2.90;99.90;;;;;;5050114;28;20108;-50
2021/01/06 10:54:49;;;;;;;9.43;5.45;;;2.90;99.90;;;;;;5066758;28;20470;-47
2021/01/06 10:57:15;;;;;;;8.63;5.30;;;2.90;99.90;;;;;;5051338;28;20120;-51
2021/01/06 11:00:00;;;;;;;8.45;5.25;;;2.90;99.90;;;;;;5051770;28;20541;-51
2021/01/06 11:02:37;;;;;;;8.93;4.93;;;3.00;99.90;;;;;;5051935;28;20029;-50
2021/01/06 11:05:11;;;;;;;6.50;4.20;;;3.00;99.90;;;;;;5050867;28;20029;-50
2021/01/06 11:07:44;;;;;;;6.93;4.38;;;3.00;99.90;;;;;;5050997;28;20031;-52
2021/01/06 11:10:23;;;;;;;8.48;5.20;;;3.00;99.90;;;;;;5050580;28;20029;-48
2021/01/06 11:13:20;;;;;;;6.93;4.13;;;3.00;99.90;;;;;;5050903;28;20367;-48
2021/01/06 11:15:59;;;;;;;6.32;3.92;;;3.10;99.90;;;;;;5050401;28;20097;-47
2021/01/06 11:18:27;;;;;;;5.32;3.33;;;3.10;99.90;;;;;;5049514;28;20035;-48
2021/01/06 11:21:05;;;;;;;5.68;3.50;;;3.10;99.90;;;;;;5049637;28;20024;-50
2021/01/06 11:23:46;;;;;;;5.60;3.35;;;3.10;99.90;;;;;;5050853;28;20032;-49
2021/01/06 11:26:21;;;;;;;7.10;3.42;;;3.10;99.90;;;;;;5050645;28;20410;-49
2021/01/06 11:29:05;;;;;;;5.22;3.70;;;3.10;99.90;;;;;;5049722;28;20056;-49
2021/01/06 11:32:03;;;;;;;3.97;3.10;;;3.10;99.90;;;;;;5047513;28;20037;-48
2021/01/06 11:34:34;;;;;;;4.28;3.08;;;3.00;99.90;;;;;;5043392;28;20040;-49
2021/01/06 11:37:02;;;;;;;4.00;3.13;;;3.10;99.90;;;;;;5049716;28;20382;-47
2021/01/06 11:39:28;;;;;;;6.15;2.97;;;3.00;99.90;;;;;;5049943;28;20040;-48
2021/01/06 11:42:04;;;;;;;6.80;3.08;;;3.00;99.90;;;;;;5049302;28;20283;-51
2021/01/06 11:45:08;;;;;;;3.83;2.67;;;3.00;99.90;;;;;;5047980;28;20498;-48
2021/01/06 11:47:43;;;;;;;3.72;2.70;;;3.00;99.90;;;;;;5049870;28;20108;-48
2021/01/06 11:50:24;;;;;;;2.72;1.92;;;3.10;99.90;;;;;;5050302;28;20025;-47
2021/01/06 11:52:50;;;;;;;3.00;2.25;;;3.10;99.90;;;;;;5050311;28;20486;-50
2021/01/06 11:55:21;;;;;;;3.05;1.95;;;3.10;99.90;;;;;;5050062;28;20032;-49
2021/01/06 11:58:20;;;;;;;3.85;2.30;;;3.10;99.90;;;;;;5049722;28;20044;-50
2021/01/06 12:01:16;;;;;;;3.65;2.38;;;3.10;99.90;;;;;;5050400;28;20087;-48
2021/01/06 12:03:44;;;;;;;3.08;2.03;;;3.10;99.90;;;;;;5051113;28;20055;-48
2021/01/06 12:06:38;;;;;;;3.03;2.10;;;3.10;99.90;;;;;;5049987;28;20501;-49
2021/01/06 12:09:32;;;;;;;3.50;2.17;;;3.10;99.90;;;;;;5048651;28;20033;-48
2021/01/06 12:12:41;;;;;;;2.38;2.00;;;3.10;99.90;;;;;;5047840;28;20389;-50
2021/01/06 12:15:39;;;;;;;2.95;2.10;;;3.10;99.90;;;;;;5034903;28;20019;-49
2021/01/06 12:18:24;;;;;;;2.30;1.90;;;3.20;99.90;;;;;;5049081;28;20032;-49
2021/01/06 12:20:50;;;;;;;3.15;2.00;;;3.10;99.90;;;;;;5049513;28;20104;-47
2021/01/06 12:23:23;;;;;;;4.32;1.90;;;3.20;99.90;;;;;;5049309;28;20025;-48
2021/01/06 12:25:55;;;;;;;2.35;1.83;;;3.30;99.90;;;;;;5047998;28;20036;-48
2021/01/06 12:28:44;;;;;;;2.22;1.67;;;3.30;99.90;;;;;;5050330;28;20106;-51
2021/01/06 12:31:37;;;;;;;2.00;1.73;;;3.20;99.90;;;;;;5048997;28;20033;-47
2021/01/06 12:34:20;;;;;;;3.50;1.75;;;3.20;99.90;;;;;;5049927;28;20033;-48
2021/01/06 12:37:11;;;;;;;2.83;2.20;;;3.10;99.90;;;;;;5048600;28;20021;-48
2021/01/06 12:39:42;;;;;;;3.90;2.03;;;3.10;99.90;;;;;;5038906;28;20029;-48
2021/01/06 12:42:14;;;;;;;2.83;1.90;;;3.20;99.90;;;;;;5047004;28;20424;-49
2021/01/06 12:44:52;;;;;;;2.10;1.90;;;3.10;99.90;;;;;;5047766;28;20028;-49
2021/01/06 12:47:29;;;;;;;2.38;1.90;;;3.10;99.90;;;;;;5050121;28;20043;-48
2021/01/06 12:50:16;;;;;;;2.25;1.95;;;3.20;99.90;;;;;;5044298;28;20064;-49
2021/01/06 12:52:46;;;;;;;2.15;1.90;;;3.20;99.90;;;;;;5044029;28;20029;-48
2021/01/06 12:55:31;;;;;;;2.70;2.22;;;3.10;99.90;;;;;;5046806;28;20025;-47
2021/01/06 12:58:08;;;;;;;2.92;2.17;;;3.10;99.90;;;;;;5047989;28;20037;-47
2021/01/06 13:00:44;;;;;;;2.88;2.28;;;3.20;99.90;;;;;;5048762;28;20103;-49
2021/01/06 13:03:29;;;;;;;2.65;2.10;;;3.20;99.90;;;;;;5048706;28;20021;-48
2021/01/06 13:06:01;;;;;;;3.08;2.42;;;3.20;99.90;;;;;;5047764;28;20029;-50
2021/01/06 13:08:37;;;;;;;3.60;2.38;;;3.20;99.90;;;;;;5041813;28;20112;-48
2021/01/06 13:11:16;;;;;;;2.35;1.88;;;3.20;99.90;;;;;;5047677;28;20027;-47
2021/01/06 13:13:42;;;;;;;2.15;1.90;;;3.20;99.90;;;;;;5046940;28;20037;-50
2021/01/06 13:16:35;;;;;;;3.03;1.90;;;3.30;99.90;;;;;;5048616;28;20278;-48
2021/01/06 13:19:04;;;;;;;2.20;1.70;;;3.30;99.90;;;;;;5048704;28;20021;-48
2021/01/06 13:21:37;;;;;;;2.30;1.75;;;3.30;99.90;;;;;;5049190;28;20166;-48
2021/01/06 13:24:11;;;;;;;2.28;1.67;;;3.30;99.90;;;;;;5048106;28;20493;-48
2021/01/06 13:26:44;;;;;;;2.13;1.65;;;3.30;99.90;;;;;;5048170;28;20029;-50
2021/01/06 13:29:18;;;;;;;2.45;1.70;;;3.20;99.90;;;;;;5047604;28;20505;-48
2021/01/06 13:31:49;;;;;;;2.47;1.80;;;3.20;99.90;;;;;;5044796;28;20041;-52
2021/01/06 13:34:38;;;;;;;1.92;1.70;;;3.20;99.90;;;;;;5047449;28;20056;-48
2021/01/06 13:37:09;;;;;;;1.63;1.45;;;3.20;99.90;;;;;;5046939;28;20081;-48
2021/01/06 13:39:38;;;;;;;2.30;1.92;;;3.20;99.90;;;;;;5045069;28;20139;-49
2021/01/06 13:42:33;;;;;;;3.20;1.98;;;3.20;99.90;;;;;;5046724;28;20048;-48
2021/01/06 13:45:10;;;;;;;3.55;2.22;;;3.20;99.90;;;;;;5028244;28;20107;-49
2021/01/06 13:48:15;;;;;;;1.98;1.60;;;3.20;99.90;;;;;;5035716;28;20474;-49